Time;durP1;ratioP1;P1;durP2;ratioP2;P2;SDS_P1;SDS_P2;PMS_P1;PMS_P2;Temp;Humidity;BMP_temperature;BMP_pressure;BME280_temperature;BME280_humidity;BME280_pressure;Samples;Min_cycle;Max_cycle;Signal;HPM_P1;HPM_P2
2021/04/04 01:03:03;;;;;;;5.70;1.92;;;5.60;75.70;;;;;;5032951;28;20041;-88
2021/04/04 01:05:35;;;;;;;7.03;1.45;;;5.50;75.80;;;;;;5031165;28;20026;-88
2021/04/04 01:08:01;;;;;;;7.18;1.70;;;5.40;76.10;;;;;;5033696;28;20063;-88
2021/04/04 01:10:30;;;;;;;7.55;1.90;;;5.40;76.40;;;;;;5032008;28;20033;-87
2021/04/04 01:13:02;;;;;;;5.90;1.67;;;5.30;76.10;;;;;;5031861;28;20018;-88
2021/04/04 01:15:37;;;;;;;4.68;1.50;;;5.20;76.60;;;;;;5032695;28;20025;-87
2021/04/04 01:18:28;;;;;;;11.37;1.80;;;5.10;76.80;;;;;;5031449;28;20079;-87
2021/04/04 01:20:57;;;;;;;5.87;2.13;;;5.10;76.90;;;;;;5029766;28;20017;-86
2021/04/04 01:23:38;;;;;;;7.73;2.03;;;5.00;77.30;;;;;;5031523;28;20101;-87
2021/04/04 01:26:26;;;;;;;6.40;1.60;;;5.00;77.90;;;;;;5031533;28;20018;-87
2021/04/04 01:28:53;;;;;;;8.13;2.17;;;5.00;78.00;;;;;;5025167;28;20122;-88
2021/04/04 01:31:20;;;;;;;8.33;2.37;;;5.00;78.20;;;;;;5034262;28;20033;-87
2021/04/04 01:33:51;;;;;;;6.73;2.03;;;5.00;78.50;;;;;;5036068;28;20025;-87
2021/04/04 01:36:18;;;;;;;5.33;2.20;;;4.90;78.70;;;;;;5034344;28;20013;-87
2021/04/04 01:38:44;;;;;;;8.23;2.23;;;5.00;79.50;;;;;;5028923;28;20021;-87
2021/04/04 01:41:27;;;;;;;8.53;2.43;;;4.90;79.60;;;;;;5036549;28;20089;-87
2021/04/04 01:43:58;;;;;;;6.65;2.40;;;4.90;80.10;;;;;;5027680;28;20025;-88
2021/04/04 01:46:24;;;;;;;6.50;2.70;;;4.90;80.20;;;;;;5032756;28;20498;-86
2021/04/04 01:48:50;;;;;;;9.10;3.07;;;4.90;80.60;;;;;;5033245;28;20060;-86
2021/04/04 01:51:16;;;;;;;6.07;2.90;;;4.80;80.90;;;;;;5028325;28;20048;-87
2021/04/04 01:53:43;;;;;;;6.83;2.80;;;4.80;81.60;;;;;;5032463;28;20443;-87
2021/04/04 01:56:09;;;;;;;6.47;2.70;;;4.80;81.50;;;;;;5033867;28;20095;-88
2021/04/04 01:58:37;;;;;;;10.87;2.70;;;4.80;81.80;;;;;;5032398;28;20029;-87
2021/04/04 02:01:07;;;;;;;9.27;2.97;;;4.70;82.00;;;;;;5026162;28;20052;-87
2021/04/04 02:03:35;;;;;;;10.43;3.27;;;4.70;82.20;;;;;;5029592;28;20030;-87
2021/04/04 02:06:00;;;;;;;8.33;3.60;;;4.70;82.50;;;;;;5026723;28;20116;-87
2021/04/04 02:08:26;;;;;;;10.77;3.80;;;4.70;82.40;;;;;;5032334;28;20061;-86
2021/04/04 02:10:53;;;;;;;9.63;3.87;;;4.60;83.10;;;;;;5032380;28;20018;-87
2021/04/04 02:13:19;;;;;;;12.23;3.50;;;4.60;83.30;;;;;;5031965;28;20021;-87
2021/04/04 02:15:47;;;;;;;9.67;3.33;;;4.70;83.40;;;;;;5033723;28;20470;-87
2021/04/04 02:18:14;;;;;;;9.97;3.50;;;4.70;83.80;;;;;;5032528;28;20026;-87
2021/04/04 02:20:39;;;;;;;9.57;3.40;;;4.70;83.80;;;;;;5032240;28;20120;-86
2021/04/04 02:23:08;;;;;;;10.43;3.53;;;4.60;84.20;;;;;;5031921;28;20043;-87
2021/04/04 02:25:34;;;;;;;9.13;3.73;;;4.60;84.40;;;;;;5032453;28;20056;-86
2021/04/04 02:28:00;;;;;;;7.00;2.93;;;4.50;84.50;;;;;;5030953;28;20018;-87
2021/04/04 02:30:27;;;;;;;9.37;3.03;;;4.60;84.60;;;;;;5033445;28;20082;-87
2021/04/04 02:33:25;;;;;;;7.93;3.00;;;4.50;84.60;;;;;;5031754;28;20117;-87
2021/04/04 02:35:59;;;;;;;9.23;3.40;;;4.50;85.60;;;;;;4989169;28;20030;-87
2021/04/04 02:38:57;;;;;;;8.70;2.97;;;4.50;84.90;;;;;;5026024;28;20505;-88
2021/04/04 02:41:23;;;;;;;7.30;2.70;;;4.40;84.70;;;;;;5035505;28;20034;-87
2021/04/04 02:43:51;;;;;;;8.10;3.40;;;4.40;85.00;;;;;;5035210;28;20104;-86
2021/04/04 02:46:21;;;;;;;9.37;2.80;;;4.40;85.60;;;;;;5035371;28;20025;-88
2021/04/04 02:48:58;;;;;;;10.47;2.80;;;4.40;85.70;;;;;;5032894;28;20123;-86
2021/04/04 02:51:32;;;;;;;12.83;2.77;;;4.40;85.70;;;;;;5035846;28;20105;-87
2021/04/04 02:53:59;;;;;;;9.97;2.80;;;4.40;85.70;;;;;;5035861;28;20040;-86
2021/04/04 02:56:26;;;;;;;7.63;2.30;;;4.30;85.30;;;;;;5035246;28;20633;-87
2021/04/04 02:58:58;;;;;;;7.77;2.47;;;4.30;85.90;;;;;;5035910;28;20032;-87
2021/04/04 03:01:32;;;;;;;7.63;1.80;;;4.30;86.30;;;;;;5036063;28;20050;-87
2021/04/04 03:03:58;;;;;;;8.13;2.10;;;4.30;86.60;;;;;;5032946;28;20284;-87
2021/04/04 03:06:24;;;;;;;9.07;3.13;;;4.20;86.40;;;;;;5035034;28;20022;-86
2021/04/04 03:08:53;;;;;;;5.30;2.13;;;4.30;86.50;;;;;;5035464;28;20463;-87
2021/04/04 03:11:19;;;;;;;7.77;2.20;;;4.20;86.70;;;;;;5037212;28;20512;-87
2021/04/04 03:13:49;;;;;;;7.03;1.90;;;4.20;86.90;;;;;;5034880;28;20033;-87
2021/04/04 03:16:17;;;;;;;8.10;2.47;;;4.20;87.60;;;;;;5036706;28;20018;-88
2021/04/04 03:18:44;;;;;;;5.47;2.17;;;4.20;87.80;;;;;;5036481;28;20029;-87
2021/04/04 03:21:11;;;;;;;9.70;2.27;;;4.20;87.80;;;;;;5035503;28;20021;-88
2021/04/04 03:23:39;;;;;;;7.80;2.10;;;4.20;87.80;;;;;;5026091;28;20450;-88
2021/04/04 03:26:05;;;;;;;7.37;2.00;;;4.20;88.20;;;;;;5035567;28;20393;-87
2021/04/04 03:28:32;;;;;;;9.43;2.33;;;4.20;88.60;;;;;;5034918;28;20087;-87
2021/04/04 03:30:58;;;;;;;5.77;2.00;;;4.10;88.60;;;;;;5034788;28;20018;-88
2021/04/04 03:33:24;;;;;;;11.20;2.37;;;4.10;88.60;;;;;;5035798;28;20093;-89
2021/04/04 03:35:56;;;;;;;6.27;2.37;;;4.10;88.70;;;;;;5035037;28;20533;-88
2021/04/04 03:38:25;;;;;;;6.47;2.05;;;4.10;89.00;;;;;;5035883;28;20032;-87
2021/04/04 03:40:52;;;;;;;7.03;2.00;;;4.10;89.10;;;;;;5036129;28;20509;-88
2021/04/04 03:43:26;;;;;;;6.90;2.10;;;4.00;89.30;;;;;;5033121;28;20386;-88
2021/04/04 03:45:58;;;;;;;5.43;1.63;;;4.00;89.60;;;;;;5032909;28;20045;-88
2021/04/04 03:48:26;;;;;;;7.22;1.98;;;4.10;89.80;;;;;;5034104;28;20037;-88
2021/04/04 03:50:54;;;;;;;5.57;2.03;;;4.10;89.40;;;;;;5033130;28;20028;-88
2021/04/04 03:53:22;;;;;;;7.27;2.20;;;4.10;89.40;;;;;;5034160;28;20070;-88
2021/04/04 03:55:51;;;;;;;9.27;2.40;;;4.20;89.80;;;;;;5034269;28;20426;-87
2021/04/04 03:58:20;;;;;;;5.77;2.07;;;4.00;89.90;;;;;;5034529;28;20017;-87
2021/04/04 04:00:47;;;;;;;9.20;2.63;;;4.00;90.00;;;;;;5032601;28;20048;-87
2021/04/04 04:03:14;;;;;;;6.50;2.30;;;4.10;90.00;;;;;;5033906;28;20026;-88
2021/04/04 04:05:40;;;;;;;7.83;2.10;;;4.00;90.00;;;;;;5034358;28;20482;-87
2021/04/04 04:08:06;;;;;;;8.57;2.13;;;4.20;90.10;;;;;;5034328;28;20263;-88
2021/04/04 04:10:33;;;;;;;6.27;2.10;;;4.00;90.10;;;;;;5033890;28;20512;-88
2021/04/04 04:13:01;;;;;;;6.67;2.30;;;4.00;90.40;;;;;;5034216;28;20013;-88
2021/04/04 04:15:28;;;;;;;5.67;1.87;;;4.00;90.50;;;;;;5033960;28;20029;-87
2021/04/04 04:17:56;;;;;;;8.00;2.20;;;3.90;90.90;;;;;;5029069;28;20043;-88
2021/04/04 04:20:22;;;;;;;6.60;1.70;;;3.90;90.60;;;;;;5030940;28;20387;-87
2021/04/04 04:22:49;;;;;;;6.53;2.20;;;3.90;90.80;;;;;;5033286;28;20036;-87
2021/04/04 04:25:15;;;;;;;8.27;2.23;;;3.90;90.70;;;;;;5033807;28;20413;-87
2021/04/04 04:27:42;;;;;;;7.63;1.90;;;3.90;90.70;;;;;;5033970;28;20075;-86
2021/04/04 04:30:10;;;;;;;9.80;2.53;;;3.90;90.80;;;;;;5049218;28;20025;-87
2021/04/04 04:32:40;;;;;;;7.57;2.50;;;3.90;90.90;;;;;;5032571;28;20021;-87
2021/04/04 04:35:07;;;;;;;8.00;2.10;;;3.90;90.80;;;;;;5030710;28;20025;-87
2021/04/04 04:37:37;;;;;;;10.57;2.43;;;3.90;91.00;;;;;;5032777;28;20053;-87
2021/04/04 04:40:08;;;;;;;5.90;1.90;;;3.90;91.20;;;;;;5033810;28;20021;-86
2021/04/04 04:42:36;;;;;;;6.13;2.20;;;3.90;91.20;;;;;;5030916;28;20030;-85
2021/04/04 04:45:03;;;;;;;7.77;2.20;;;3.80;91.30;;;;;;5033562;28;20025;-88
2021/04/04 04:47:29;;;;;;;5.13;2.40;;;3.80;91.20;;;;;;5033981;28;20519;-87
2021/04/04 04:49:55;;;;;;;6.90;2.10;;;3.90;91.20;;;;;;5033325;28;20026;-87
2021/04/04 04:52:23;;;;;;;6.77;2.20;;;3.80;91.50;;;;;;5033880;28;20526;-87
2021/04/04 04:54:49;;;;;;;6.63;2.10;;;3.80;91.40;;;;;;5032043;28;20036;-87
2021/04/04 04:57:15;;;;;;;8.17;2.20;;;3.80;91.70;;;;;;5032152;28;20022;-87
2021/04/04 04:59:40;;;;;;;5.53;2.00;;;3.80;91.80;;;;;;5031432;28;20076;-87
2021/04/04 05:02:10;;;;;;;6.07;2.17;;;3.80;91.70;;;;;;5027403;28;20483;-87
2021/04/04 05:04:35;;;;;;;6.43;2.77;;;3.80;91.80;;;;;;5028556;28;20079;-88
2021/04/04 05:07:01;;;;;;;8.57;2.10;;;3.80;91.80;;;;;;5030723;28;20038;-87
2021/04/04 05:09:31;;;;;;;7.50;2.60;;;3.90;91.70;;;;;;5030321;28;20034;-88
2021/04/04 05:11:59;;;;;;;7.93;2.13;;;3.90;91.70;;;;;;5031831;28;20135;-88
2021/04/04 05:14:25;;;;;;;7.87;2.20;;;3.80;91.70;;;;;;5029976;28;20063;-87
2021/04/04 05:16:53;;;;;;;7.57;2.17;;;3.90;91.70;;;;;;5026831;28;20091;-88
2021/04/04 05:19:18;;;;;;;7.33;2.10;;;3.90;92.20;;;;;;5028733;28;20474;-87
2021/04/04 05:21:44;;;;;;;6.70;1.70;;;3.80;92.10;;;;;;5029206;28;20029;-87
2021/04/04 05:24:14;;;;;;;6.50;2.10;;;3.80;92.10;;;;;;5028452;28;20025;-87
2021/04/04 05:26:46;;;;;;;6.30;2.00;;;3.70;92.00;;;;;;5023488;28;20613;-87
2021/04/04 05:29:17;;;;;;;6.95;1.65;;;3.70;92.00;;;;;;5031672;28;20104;-88
2021/04/04 05:31:51;;;;;;;7.63;1.83;;;3.70;92.00;;;;;;5030322;28;20029;-87
2021/04/04 05:34:22;;;;;;;7.93;2.30;;;3.70;92.30;;;;;;5022045;28;20021;-88
2021/04/04 05:37:00;;;;;;;6.87;2.57;;;3.70;92.40;;;;;;5025786;28;20143;-87
2021/04/04 05:39:29;;;;;;;7.57;2.53;;;3.80;92.40;;;;;;5027852;28;20399;-88
2021/04/04 05:41:59;;;;;;;7.77;2.80;;;3.70;92.40;;;;;;5027438;28;20025;-87
2021/04/04 05:44:50;;;;;;;9.07;3.47;;;3.80;92.50;;;;;;5026479;28;20026;-88
2021/04/04 05:47:39;;;;;;;10.97;3.10;;;3.80;92.70;;;;;;5030503;28;20017;-87
2021/04/04 05:50:21;;;;;;;6.33;2.73;;;3.90;92.80;;;;;;5024913;28;20033;-86
2021/04/04 05:53:16;;;;;;;8.25;3.22;;;3.90;92.60;;;;;;5023464;28;20029;-87
2021/04/04 05:56:00;;;;;;;11.90;3.70;;;4.00;92.60;;;;;;5014028;28;20147;-87
2021/04/04 05:58:29;;;;;;;6.97;2.83;;;4.20;92.50;;;;;;5029978;28;20021;-86
2021/04/04 06:01:00;;;;;;;8.10;3.50;;;4.20;92.40;;;;;;5032139;28;20033;-87
2021/04/04 06:03:59;;;;;;;9.87;3.30;;;4.30;92.40;;;;;;5032506;28;20033;-87
2021/04/04 06:07:04;;;;;;;8.33;3.57;;;4.40;92.20;;;;;;5030720;28;20027;-87
2021/04/04 06:10:02;;;;;;;8.30;3.77;;;4.50;92.00;;;;;;5017004;28;20026;-88
2021/04/04 06:12:43;;;;;;;8.50;4.00;;;4.60;92.00;;;;;;5024906;28;20034;-87
2021/04/04 06:15:22;;;;;;;11.20;4.20;;;4.70;91.90;;;;;;5030010;28;20034;-87
2021/04/04 06:18:09;;;;;;;8.00;4.23;;;4.80;91.80;;;;;;5023919;28;20021;-88
2021/04/04 06:21:09;;;;;;;9.73;4.30;;;4.90;91.70;;;;;;5028475;28;20028;-87
2021/04/04 06:23:53;;;;;;;11.97;3.80;;;5.10;91.40;;;;;;5026754;28;20026;-87
2021/04/04 06:26:45;;;;;;;9.70;3.87;;;5.20;91.20;;;;;;5026442;28;20029;-87
2021/04/04 06:29:21;;;;;;;9.97;3.60;;;5.40;91.00;;;;;;5025592;28;20402;-87
2021/04/04 06:32:01;;;;;;;7.07;3.50;;;5.50;90.80;;;;;;5030116;28;20023;-87
2021/04/04 06:34:35;;;;;;;8.70;3.00;;;5.60;90.50;;;;;;5027245;28;20430;-87
2021/04/04 06:37:29;;;;;;;11.07;4.33;;;5.60;90.40;;;;;;5028512;28;20018;-87
2021/04/04 06:40:01;;;;;;;9.17;3.53;;;5.50;90.00;;;;;;5026040;28;20100;-87
2021/04/04 06:42:36;;;;;;;12.45;4.90;;;5.40;90.00;;;;;;5029458;28;20021;-86
2021/04/04 06:45:17;;;;;;;15.20;6.07;;;5.20;90.40;;;;;;5025428;28;20053;-87
2021/04/04 06:48:11;;;;;;;12.77;6.03;;;4.90;90.80;;;;;;5030152;28;20059;-87
2021/04/04 06:50:42;;;;;;;9.67;4.60;;;4.80;91.00;;;;;;5024341;28;20608;-87
2021/04/04 06:53:20;;;;;;;12.80;4.40;;;4.50;91.40;;;;;;5029192;28;20018;-87
2021/04/04 06:56:03;;;;;;;10.30;4.43;;;4.50;91.90;;;;;;5030672;28;20031;-87
2021/04/04 06:58:47;;;;;;;10.77;4.70;;;4.40;92.70;;;;;;5029047;28;20018;-87
2021/04/04 07:01:36;;;;;;;14.13;4.77;;;4.30;93.20;;;;;;5029485;28;20033;-87
2021/04/04 07:04:15;;;;;;;7.77;4.23;;;4.40;93.20;;;;;;5025168;28;20060;-87
2021/04/04 07:06:55;;;;;;;14.97;4.60;;;4.40;92.90;;;;;;5029313;28;20064;-88
2021/04/04 07:09:48;;;;;;;7.57;4.67;;;4.80;92.70;;;;;;5028821;28;20032;-87
2021/04/04 07:12:49;;;;;;;11.37;4.40;;;5.20;92.00;;;;;;5028226;28;20036;-87
2021/04/04 07:15:48;;;;;;;10.83;4.27;;;5.50;91.40;;;;;;4997373;28;20029;-87
2021/04/04 07:18:38;;;;;;;9.33;4.53;;;5.70;90.90;;;;;;5023973;28;20018;-87
2021/04/04 07:21:20;;;;;;;8.70;4.00;;;6.00;90.60;;;;;;5045244;28;20097;-87
2021/04/04 07:23:56;;;;;;;11.63;4.43;;;6.30;89.80;;;;;;5021337;28;20060;-88
2021/04/04 07:26:42;;;;;;;9.83;4.43;;;6.50;88.90;;;;;;5032199;28;20493;-88
2021/04/04 07:29:39;;;;;;;12.17;4.33;;;6.80;87.60;;;;;;5028275;28;20048;-88
2021/04/04 07:32:14;;;;;;;11.77;4.30;;;6.90;87.90;;;;;;5025747;28;20021;-88
2021/04/04 07:34:48;;;;;;;8.10;4.47;;;6.90;88.60;;;;;;5031904;28;20025;-88
2021/04/04 07:37:30;;;;;;;8.67;4.27;;;6.80;88.70;;;;;;5032821;28;20418;-87
2021/04/04 07:40:07;;;;;;;15.63;5.00;;;7.00;88.60;;;;;;5024052;28;20018;-88
2021/04/04 07:42:58;;;;;;;7.90;4.20;;;7.20;87.60;;;;;;5030057;28;20152;-88
2021/04/04 07:45:45;;;;;;;9.27;4.28;;;7.40;86.30;;;;;;5027790;28;20025;-87
2021/04/04 07:48:26;;;;;;;10.98;3.55;;;7.60;86.40;;;;;;5022159;28;20025;-87
2021/04/04 07:51:09;;;;;;;10.13;3.45;;;7.70;83.80;;;;;;5030801;28;20021;-87
2021/04/04 07:53:59;;;;;;;10.65;4.78;;;7.70;82.30;;;;;;5033198;28;20493;-87
2021/04/04 07:56:28;;;;;;;12.73;4.55;;;7.80;84.50;;;;;;5031962;28;20029;-87
2021/04/04 07:59:12;;;;;;;9.38;4.28;;;7.80;84.00;;;;;;5030644;28;20025;-87
2021/04/04 08:02:09;;;;;;;10.80;4.20;;;8.00;83.30;;;;;;5030670;28;20099;-87
2021/04/04 08:04:56;;;;;;;12.93;4.70;;;8.20;81.50;;;;;;5028729;28;20067;-88
2021/04/04 08:07:29;;;;;;;10.95;3.72;;;8.40;82.00;;;;;;5032598;28;20059;-87
2021/04/04 08:10:30;;;;;;;9.32;3.85;;;8.40;79.70;;;;;;5029442;28;20474;-86
2021/04/04 08:13:14;;;;;;;14.23;4.60;;;8.50;80.40;;;;;;5018385;28;20026;-87
2021/04/04 08:16:07;;;;;;;12.70;3.65;;;8.70;81.00;;;;;;5028968;28;20026;-87
2021/04/04 08:18:33;;;;;;;10.88;3.85;;;8.80;79.30;;;;;;5029886;28;20557;-88
2021/04/04 08:21:34;;;;;;;9.52;3.70;;;9.00;80.30;;;;;;5031889;28;20022;-87
2021/04/04 08:24:06;;;;;;;10.60;3.90;;;9.00;78.40;;;;;;5008760;28;20038;-88
2021/04/04 08:26:50;;;;;;;13.40;4.32;;;9.10;77.50;;;;;;5025914;28;20026;-87
2021/04/04 08:29:40;;;;;;;9.55;3.85;;;9.20;76.30;;;;;;5020566;28;20026;-87
2021/04/04 08:32:10;;;;;;;9.45;4.03;;;9.20;77.20;;;;;;5028910;28;20017;-88
2021/04/04 08:34:57;;;;;;;12.38;4.25;;;9.40;77.90;;;;;;5024140;28;20026;-88
2021/04/04 08:37:30;;;;;;;9.77;4.00;;;9.40;76.90;;;;;;5023446;28;20052;-88
2021/04/04 08:39:58;;;;;;;8.90;4.22;;;9.40;76.90;;;;;;5022243;28;20850;-89
2021/04/04 08:42:27;;;;;;;10.85;3.45;;;9.30;76.70;;;;;;5024986;28;20622;-88
2021/04/04 08:45:29;;;;;;;11.27;3.95;;;9.40;76.70;;;;;;5015208;28;20363;-87
2021/04/04 08:47:55;;;;;;;7.90;3.80;;;9.60;76.20;;;;;;5020302;28;20124;-87
2021/04/04 08:50:23;;;;;;;9.45;3.75;;;9.70;75.00;;;;;;5023942;28;20029;-88
2021/04/04 08:53:06;;;;;;;7.50;3.22;;;9.80;73.90;;;;;;5012269;28;20459;-88
2021/04/04 08:55:31;;;;;;;8.57;3.63;;;9.90;74.60;;;;;;5019651;28;20075;-88
2021/04/04 08:58:01;;;;;;;9.20;3.38;;;10.00;72.40;;;;;;5020366;28;20033;-89
2021/04/04 09:00:29;;;;;;;8.05;3.50;;;10.00;71.30;;;;;;5020647;28;20034;-88
2021/04/04 09:02:59;;;;;;;9.00;3.20;;;10.00;70.40;;;;;;5028304;28;20026;-89
2021/04/04 09:05:27;;;;;;;8.98;3.72;;;9.90;71.00;;;;;;5029936;28;20061;-88
2021/04/04 09:07:58;;;;;;;8.57;3.55;;;10.00;71.00;;;;;;5025236;28;20014;-87
2021/04/04 09:10:25;;;;;;;9.25;3.25;;;10.10;70.80;;;;;;5027569;28;20167;-88
2021/04/04 09:12:52;;;;;;;8.38;3.10;;;10.20;70.00;;;;;;5030534;28;20026;-88
2021/04/04 09:15:20;;;;;;;9.00;3.50;;;10.40;69.00;;;;;;5031210;28;20075;-89
2021/04/04 09:18:08;;;;;;;11.88;3.00;;;10.50;70.10;;;;;;5028238;28;20022;-89
2021/04/04 09:20:36;;;;;;;9.82;3.17;;;10.80;67.10;;;;;;5030945;28;20087;-88
2021/04/04 09:23:04;;;;;;;7.35;3.08;;;10.90;66.20;;;;;;5031162;28;20014;-88
2021/04/04 09:25:31;;;;;;;9.18;2.80;;;11.10;66.70;;;;;;5031131;28;20017;-87
2021/04/04 09:27:58;;;;;;;7.03;2.70;;;11.20;65.00;;;;;;5031549;28;20056;-89
2021/04/04 09:30:35;;;;;;;9.05;2.88;;;11.10;64.40;;;;;;5031944;28;20029;-88
2021/04/04 09:33:09;;;;;;;7.57;2.60;;;11.00;63.30;;;;;;5030173;28;20060;-89
2021/04/04 09:35:38;;;;;;;7.47;3.13;;;11.20;63.90;;;;;;5030568;28;20083;-88
2021/04/04 09:38:07;;;;;;;5.90;2.10;;;11.30;64.40;;;;;;5020054;28;20133;-88
2021/04/04 09:40:34;;;;;;;10.63;2.28;;;11.30;59.70;;;;;;5021552;28;20036;-88
2021/04/04 09:43:11;;;;;;;6.82;1.75;;;11.60;59.70;;;;;;5028812;28;20036;-88
2021/04/04 09:45:38;;;;;;;7.28;1.92;;;11.60;58.50;;;;;;5024673;28;20033;-88
2021/04/04 09:48:24;;;;;;;4.15;1.75;;;11.90;58.30;;;;;;5029642;28;20032;-88
2021/04/04 09:51:04;;;;;;;6.28;1.83;;;12.10;57.40;;;;;;5024104;28;20507;-89
2021/04/04 09:53:43;;;;;;;5.10;1.50;;;12.30;55.20;;;;;;5021074;28;20025;-88
2021/04/04 09:56:16;;;;;;;4.93;1.60;;;12.40;52.70;;;;;;5017637;28;20061;-89
2021/04/04 09:58:48;;;;;;;4.53;1.77;;;12.40;52.10;;;;;;5028501;28;20486;-87
2021/04/04 10:01:18;;;;;;;3.95;1.40;;;12.60;50.90;;;;;;5023702;28;20389;-89
2021/04/04 10:04:03;;;;;;;6.40;2.42;;;12.70;49.80;;;;;;5025346;28;20033;-89
2021/04/04 10:06:30;;;;;;;6.20;2.03;;;12.70;51.90;;;;;;5023203;28;20102;-89
2021/04/04 10:09:05;;;;;;;4.00;1.52;;;12.30;52.40;;;;;;5027938;28;20207;-88
2021/04/04 10:11:33;;;;;;;5.53;2.10;;;12.50;52.10;;;;;;5021412;28;20017;-88
2021/04/04 10:14:06;;;;;;;4.43;1.50;;;12.70;50.70;;;;;;5021895;28;20036;-89
2021/04/04 10:16:32;;;;;;;4.93;1.88;;;12.70;50.50;;;;;;5029537;28;20026;-89
2021/04/04 10:19:12;;;;;;;5.22;2.05;;;12.70;50.80;;;;;;5028409;28;20044;-90
2021/04/04 10:21:39;;;;;;;6.75;2.10;;;12.70;51.40;;;;;;5020690;28;20033;-89
2021/04/04 10:24:26;;;;;;;6.93;2.17;;;12.60;51.80;;;;;;5023508;28;20105;-88
2021/04/04 10:27:25;;;;;;;5.80;1.98;;;12.70;52.50;;;;;;5033802;28;20028;-89
2021/04/04 10:30:15;;;;;;;6.03;2.25;;;12.70;51.60;;;;;;5021376;28;20033;-89
2021/04/04 10:32:42;;;;;;;7.75;2.50;;;12.40;52.90;;;;;;5021278;28;20026;-90
2021/04/04 10:35:09;;;;;;;7.00;2.50;;;11.90;52.70;;;;;;5027755;28;20030;-90
2021/04/04 10:37:35;;;;;;;6.28;2.42;;;11.60;54.10;;;;;;5026979;28;20021;-89
2021/04/04 10:40:11;;;;;;;5.50;1.90;;;11.40;53.90;;;;;;5027880;28;20067;-89
2021/04/04 10:42:38;;;;;;;8.13;2.40;;;11.60;54.50;;;;;;5022918;28;20048;-88
2021/04/04 10:45:15;;;;;;;5.25;2.20;;;11.60;53.80;;;;;;5021329;28;20108;-89
2021/04/04 10:47:43;;;;;;;7.55;2.30;;;12.00;54.40;;;;;;5026836;28;20100;-88
2021/04/04 10:50:14;;;;;;;6.80;2.10;;;12.30;52.50;;;;;;5022552;28;20041;-89
2021/04/04 10:52:41;;;;;;;5.72;1.90;;;12.40;52.40;;;;;;5025410;28;20825;-88
2021/04/04 10:55:09;;;;;;;5.65;2.40;;;12.50;52.00;;;;;;5024777;28;20021;-89
2021/04/04 10:57:35;;;;;;;7.72;2.47;;;12.10;51.10;;;;;;5023836;28;20037;-87
2021/04/04 11:00:07;;;;;;;5.55;2.30;;;12.60;51.90;;;;;;5019911;28;20032;-87
2021/04/04 11:02:34;;;;;;;;;;;13.00;51.00;;;;;;5018020;28;20039;-89
2021/04/04 11:05:01;;;;;;;4.75;2.00;;;13.00;50.70;;;;;;5022341;28;20289;-87
2021/04/04 11:07:27;;;;;;;5.70;1.73;;;13.40;50.60;;;;;;5024215;28;20069;-88
2021/04/04 11:09:54;;;;;;;4.85;1.88;;;13.60;47.30;;;;;;5030385;28;20029;-89
2021/04/04 11:12:22;;;;;;;5.82;1.73;;;13.50;48.10;;;;;;5029076;28;20121;-87
2021/04/04 11:14:50;;;;;;;5.53;1.70;;;13.70;46.70;;;;;;5021024;28;20033;-88
2021/04/04 11:17:20;;;;;;;6.00;1.95;;;13.90;46.80;;;;;;5020951;28;20098;-89
2021/04/04 11:19:49;;;;;;;6.38;2.03;;;14.00;47.10;;;;;;5023583;28;20055;-88
2021/04/04 11:22:18;;;;;;;5.60;1.55;;;14.10;46.70;;;;;;5021147;28;20029;-89
2021/04/04 11:25:05;;;;;;;5.45;1.65;;;14.00;45.90;;;;;;5020270;28;20103;-89
2021/04/04 11:27:48;;;;;;;4.70;1.27;;;13.70;46.00;;;;;;5032009;28;20021;-89
2021/04/04 11:30:18;;;;;;;5.25;1.80;;;13.60;47.40;;;;;;5034790;28;20063;-88
2021/04/04 11:32:46;;;;;;;3.80;1.73;;;13.50;46.70;;;;;;5027691;28;20138;-89
2021/04/04 11:35:14;;;;;;;5.57;1.95;;;13.70;47.40;;;;;;5032551;28;20053;-90
2021/04/04 11:37:42;;;;;;;5.43;1.67;;;13.70;46.40;;;;;;5033410;28;20022;-89
2021/04/04 11:40:23;;;;;;;4.25;1.90;;;13.70;46.80;;;;;;5033286;28;20030;-90
2021/04/04 11:42:52;;;;;;;8.40;1.80;;;14.00;46.00;;;;;;5031921;28;20017;-89
2021/04/04 11:45:38;;;;;;;5.82;2.00;;;14.10;45.80;;;;;;5034190;28;20398;-89
2021/04/04 11:48:28;;;;;;;5.03;1.90;;;14.20;47.60;;;;;;5031688;28;20018;-89
2021/04/04 11:50:55;;;;;;;6.07;2.00;;;14.10;46.10;;;;;;5029024;28;20029;-90
2021/04/04 11:53:40;;;;;;;6.13;2.00;;;14.10;45.50;;;;;;5032496;28;20497;-90
2021/04/04 11:56:06;;;;;;;5.05;1.80;;;14.20;46.60;;;;;;5033064;28;20078;-88
2021/04/04 11:58:32;;;;;;;3.88;1.67;;;14.50;45.70;;;;;;5032438;28;20029;-88
2021/04/04 12:00:58;;;;;;;5.20;1.88;;;14.50;45.40;;;;;;5032732;28;20025;-89
2021/04/04 12:03:25;;;;;;;3.90;1.70;;;14.50;44.40;;;;;;5032180;28;20025;-89
2021/04/04 12:05:51;;;;;;;6.32;1.90;;;15.00;46.40;;;;;;5024707;28;20063;-89
2021/04/04 12:08:26;;;;;;;8.45;2.00;;;15.00;44.30;;;;;;5032208;28;20459;-89
2021/04/04 12:10:52;;;;;;;4.95;2.15;;;14.60;44.90;;;;;;5031655;28;20022;-88
2021/04/04 12:13:18;;;;;;;4.97;2.15;;;14.80;44.10;;;;;;5031240;28;20047;-88
2021/04/04 12:15:44;;;;;;;6.20;2.05;;;14.70;44.40;;;;;;5032424;28;20467;-88
2021/04/04 12:18:10;;;;;;;4.90;2.20;;;14.90;44.80;;;;;;5032048;28;20093;-89
2021/04/04 12:20:36;;;;;;;8.32;2.00;;;14.90;44.50;;;;;;5033458;28;20104;-89
2021/04/04 12:23:08;;;;;;;6.53;2.03;;;15.00;44.60;;;;;;5031749;28;20364;-89
2021/04/04 12:25:36;;;;;;;4.82;2.00;;;14.90;44.60;;;;;;5032724;28;20474;-88
2021/04/04 12:28:03;;;;;;;5.38;1.92;;;14.90;43.70;;;;;;5032019;28;20064;-88
2021/04/04 12:30:47;;;;;;;5.32;2.20;;;14.70;44.80;;;;;;5033538;28;20021;-88
2021/04/04 12:33:20;;;;;;;5.43;2.30;;;14.80;44.60;;;;;;5032096;28;20052;-88
2021/04/04 12:35:54;;;;;;;5.30;1.90;;;14.90;43.40;;;;;;5032330;28;20244;-89
2021/04/04 12:38:27;;;;;;;5.90;1.85;;;15.10;44.20;;;;;;5031310;28;20033;-89
2021/04/04 12:40:55;;;;;;;5.15;2.28;;;15.40;43.50;;;;;;5031985;28;20031;-89
2021/04/04 12:43:20;;;;;;;4.47;2.05;;;15.50;41.70;;;;;;5031682;28;20017;-88
2021/04/04 12:45:46;;;;;;;5.20;2.10;;;15.80;42.50;;;;;;5032026;28;20109;-89
2021/04/04 12:48:18;;;;;;;4.93;1.95;;;15.70;42.80;;;;;;5031523;28;20021;-88
2021/04/04 12:50:48;;;;;;;4.90;2.13;;;15.90;42.80;;;;;;5024859;28;20075;-89
2021/04/04 12:53:32;;;;;;;5.70;2.05;;;16.10;41.60;;;;;;5031107;28;20486;-89
2021/04/04 12:55:58;;;;;;;4.75;1.73;;;16.20;42.20;;;;;;5025783;28;20448;-89
2021/04/04 12:58:32;;;;;;;4.85;1.80;;;16.30;42.50;;;;;;5029608;28;20021;-88
2021/04/04 13:00:58;;;;;;;3.80;1.83;;;16.50;40.50;;;;;;5042269;28;20029;-88
2021/04/04 13:03:31;;;;;;;4.55;1.95;;;16.60;40.70;;;;;;5031199;28;20025;-88
2021/04/04 13:05:57;;;;;;;5.43;2.00;;;16.30;40.30;;;;;;5025180;28;20022;-89
2021/04/04 13:08:25;;;;;;;5.68;2.08;;;16.20;40.70;;;;;;5030595;28;20072;-88
2021/04/04 13:10:55;;;;;;;4.88;1.73;;;16.00;41.20;;;;;;5032533;28;20018;-88
2021/04/04 13:13:22;;;;;;;5.15;2.00;;;16.10;41.60;;;;;;5031733;28;20497;-88
2021/04/04 13:15:49;;;;;;;5.53;2.20;;;16.00;42.50;;;;;;5029578;28;20017;-89
2021/04/04 13:18:35;;;;;;;5.53;2.15;;;16.10;41.30;;;;;;5030940;28;20014;-89
2021/04/04 13:21:05;;;;;;;5.47;2.10;;;16.30;40.80;;;;;;5024917;28;20029;-89
2021/04/04 13:23:38;;;;;;;4.80;1.83;;;16.30;40.40;;;;;;5030263;28;20022;-89
2021/04/04 13:26:11;;;;;;;5.70;2.33;;;16.50;41.10;;;;;;5031302;28;20128;-89
2021/04/04 13:28:37;;;;;;;6.78;1.80;;;16.50;40.40;;;;;;5032430;28;20030;-88
2021/04/04 13:31:09;;;;;;;5.22;2.28;;;16.50;40.60;;;;;;5033223;28;20028;-89
2021/04/04 13:33:35;;;;;;;5.53;1.92;;;16.50;40.20;;;;;;5030497;28;20876;-89
2021/04/04 13:36:13;;;;;;;7.10;2.10;;;16.70;39.50;;;;;;5030886;28;20112;-89
2021/04/04 13:38:39;;;;;;;5.47;2.13;;;16.90;39.50;;;;;;5031846;28;20029;-89
2021/04/04 13:41:06;;;;;;;5.75;2.10;;;17.50;39.30;;;;;;5028310;28;20375;-88
2021/04/04 13:43:42;;;;;;;6.70;2.58;;;17.50;39.50;;;;;;5045563;28;20398;-90
2021/04/04 13:46:10;;;;;;;5.10;2.03;;;17.30;38.30;;;;;;5032311;28;20483;-89
2021/04/04 13:48:36;;;;;;;5.70;2.08;;;16.90;38.40;;;;;;5029606;28;20026;-87
2021/04/04 13:51:04;;;;;;;5.38;2.05;;;17.20;39.50;;;;;;5030816;28;20800;-89
2021/04/04 13:53:35;;;;;;;4.80;1.85;;;17.50;39.90;;;;;;5030455;28;20030;-88
2021/04/04 13:56:15;;;;;;;5.05;1.80;;;17.70;38.00;;;;;;5031063;28;20028;-89
2021/04/04 13:58:48;;;;;;;6.68;1.83;;;17.70;38.40;;;;;;5017370;28;20044;-88
2021/04/04 14:01:30;;;;;;;6.07;2.10;;;18.10;38.20;;;;;;5020312;28;20726;-89
2021/04/04 14:03:56;;;;;;;;;;;18.10;38.00;;;;;;5027335;28;20049;-89
2021/04/04 14:06:33;;;;;;;4.57;1.80;;;17.90;38.70;;;;;;5028389;28;19994;-89
2021/04/04 14:08:59;;;;;;;6.20;2.20;;;18.30;38.00;;;;;;5031272;28;20017;-88
2021/04/04 14:11:25;;;;;;;6.18;1.83;;;18.00;37.70;;;;;;5031920;28;20509;-88
2021/04/04 14:13:54;;;;;;;9.48;2.67;;;18.40;38.00;;;;;;5030861;28;20026;-90
2021/04/04 14:16:20;;;;;;;5.60;2.08;;;18.30;37.00;;;;;;5031014;28;20049;-90
2021/04/04 14:18:46;;;;;;;5.32;2.33;;;18.40;37.90;;;;;;5024080;28;20025;-90
2021/04/04 14:21:12;;;;;;;5.53;2.10;;;18.10;38.00;;;;;;5029052;28;20057;-90
2021/04/04 14:23:38;;;;;;;3.85;2.05;;;18.20;38.80;;;;;;5030277;28;20083;-90
2021/04/04 14:26:05;;;;;;;5.35;2.03;;;18.10;38.90;;;;;;5027847;28;20053;-90